sensor_id;sensor_type;location;lat;lon;timestamp;P1;durP1;ratioP1;P2;durP2;ratioP2
81306;SDS011;70775;50.846;3.224;2024-01-30T00:01:41;19.30;;;11.07;;
81306;SDS011;70775;50.846;3.224;2024-01-30T00:04:07;19.35;;;9.93;;
81306;SDS011;70775;50.846;3.224;2024-01-30T00:06:33;25.23;;;12.10;;
81306;SDS011;70775;50.846;3.224;2024-01-30T00:08:59;21.40;;;11.57;;
81306;SDS011;70775;50.846;3.224;2024-01-30T00:11:27;24.80;;;12.07;;
81306;SDS011;70775;50.846;3.224;2024-01-30T00:16:38;19.27;;;11.05;;
81306;SDS011;70775;50.846;3.224;2024-01-30T00:19:04;22.90;;;10.82;;
81306;SDS011;70775;50.846;3.224;2024-01-30T00:21:30;26.15;;;12.73;;
81306;SDS011;70775;50.846;3.224;2024-01-30T00:23:55;23.58;;;11.15;;
81306;SDS011;70775;50.846;3.224;2024-01-30T00:26:23;23.60;;;12.38;;
81306;SDS011;70775;50.846;3.224;2024-01-30T00:28:49;23.08;;;13.02;;
81306;SDS011;70775;50.846;3.224;2024-01-30T00:31:14;20.42;;;11.27;;
81306;SDS011;70775;50.846;3.224;2024-01-30T00:33:51;17.38;;;10.68;;
81306;SDS011;70775;50.846;3.224;2024-01-30T00:36:17;21.13;;;11.73;;
81306;SDS011;70775;50.846;3.224;2024-01-30T00:38:45;23.17;;;10.98;;
81306;SDS011;70775;50.846;3.224;2024-01-30T00:41:10;21.35;;;11.27;;
81306;SDS011;70775;50.846;3.224;2024-01-30T00:43:36;19.05;;;12.05;;
81306;SDS011;70775;50.846;3.224;2024-01-30T00:46:02;21.23;;;12.32;;
81306;SDS011;70775;50.846;3.224;2024-01-30T00:48:28;23.83;;;12.38;;
81306;SDS011;70775;50.846;3.224;2024-01-30T00:51:00;24.80;;;11.98;;
81306;SDS011;70775;50.846;3.224;2024-01-30T00:53:32;21.80;;;11.38;;
81306;SDS011;70775;50.846;3.224;2024-01-30T00:55:58;26.60;;;12.32;;
81306;SDS011;70775;50.846;3.224;2024-01-30T00:58:23;21.98;;;11.95;;
81306;SDS011;70775;50.846;3.224;2024-01-30T01:00:49;23.15;;;11.20;;
81306;SDS011;70775;50.846;3.224;2024-01-30T01:03:15;23.20;;;11.07;;
81306;SDS011;70775;50.846;3.224;2024-01-30T01:08:38;22.33;;;11.68;;
81306;SDS011;70775;50.846;3.224;2024-01-30T01:13:51;20.38;;;11.00;;
81306;SDS011;70775;50.846;3.224;2024-01-30T01:16:16;22.13;;;12.00;;
81306;SDS011;70775;50.846;3.224;2024-01-30T01:18:42;25.35;;;11.82;;
81306;SDS011;70775;50.846;3.224;2024-01-30T01:21:08;20.75;;;11.15;;
81306;SDS011;70775;50.846;3.224;2024-01-30T01:23:33;23.52;;;11.65;;
81306;SDS011;70775;50.846;3.224;2024-01-30T01:25:59;21.63;;;11.77;;
81306;SDS011;70775;50.846;3.224;2024-01-30T01:28:26;20.33;;;11.75;;
81306;SDS011;70775;50.846;3.224;2024-01-30T01:30:52;22.85;;;11.82;;
81306;SDS011;70775;50.846;3.224;2024-01-30T01:33:17;23.17;;;11.98;;
81306;SDS011;70775;50.846;3.224;2024-01-30T01:35:43;23.08;;;12.23;;
81306;SDS011;70775;50.846;3.224;2024-01-30T01:38:18;25.98;;;12.95;;
81306;SDS011;70775;50.846;3.224;2024-01-30T01:40:58;21.33;;;12.20;;
81306;SDS011;70775;50.846;3.224;2024-01-30T01:46:08;26.38;;;11.82;;
81306;SDS011;70775;50.846;3.224;2024-01-30T01:48:34;23.73;;;11.77;;
81306;SDS011;70775;50.846;3.224;2024-01-30T01:51:00;22.23;;;12.13;;
81306;SDS011;70775;50.846;3.224;2024-01-30T01:56:29;22.75;;;12.35;;
81306;SDS011;70775;50.846;3.224;2024-01-30T01:59:11;23.55;;;12.48;;
81306;SDS011;70775;50.846;3.224;2024-01-30T02:01:37;22.73;;;12.43;;
81306;SDS011;70775;50.846;3.224;2024-01-30T02:04:06;26.48;;;13.05;;
81306;SDS011;70775;50.846;3.224;2024-01-30T02:06:34;20.90;;;12.00;;
81306;SDS011;70775;50.846;3.224;2024-01-30T02:09:00;21.23;;;11.75;;
81306;SDS011;70775;50.846;3.224;2024-01-30T02:11:25;22.90;;;11.85;;
81306;SDS011;70775;50.846;3.224;2024-01-30T02:13:52;22.00;;;11.38;;
81306;SDS011;70775;50.846;3.224;2024-01-30T02:16:18;27.15;;;12.38;;
81306;SDS011;70775;50.846;3.224;2024-01-30T02:18:44;20.20;;;12.43;;
81306;SDS011;70775;50.846;3.224;2024-01-30T02:21:12;23.23;;;10.95;;
81306;SDS011;70775;50.846;3.224;2024-01-30T02:23:42;21.77;;;12.07;;
81306;SDS011;70775;50.846;3.224;2024-01-30T02:26:09;23.70;;;11.73;;
81306;SDS011;70775;50.846;3.224;2024-01-30T02:28:36;22.83;;;11.88;;
81306;SDS011;70775;50.846;3.224;2024-01-30T02:31:02;22.65;;;12.32;;
81306;SDS011;70775;50.846;3.224;2024-01-30T02:33:36;25.02;;;12.57;;
81306;SDS011;70775;50.846;3.224;2024-01-30T02:36:08;23.30;;;12.35;;
81306;SDS011;70775;50.846;3.224;2024-01-30T02:38:34;25.85;;;12.70;;
81306;SDS011;70775;50.846;3.224;2024-01-30T02:41:00;26.55;;;12.77;;
81306;SDS011;70775;50.846;3.224;2024-01-30T02:43:25;26.63;;;13.40;;
81306;SDS011;70775;50.846;3.224;2024-01-30T02:46:09;22.73;;;12.82;;
81306;SDS011;70775;50.846;3.224;2024-01-30T02:51:39;23.03;;;14.13;;
81306;SDS011;70775;50.846;3.224;2024-01-30T02:54:04;22.00;;;12.32;;
81306;SDS011;70775;50.846;3.224;2024-01-30T02:56:30;25.17;;;13.48;;
81306;SDS011;70775;50.846;3.224;2024-01-30T02:58:56;26.58;;;11.75;;
81306;SDS011;70775;50.846;3.224;2024-01-30T03:01:28;22.08;;;12.77;;
81306;SDS011;70775;50.846;3.224;2024-01-30T03:03:57;20.67;;;12.00;;
81306;SDS011;70775;50.846;3.224;2024-01-30T03:06:23;23.70;;;12.43;;
81306;SDS011;70775;50.846;3.224;2024-01-30T03:11:18;21.40;;;11.20;;
81306;SDS011;70775;50.846;3.224;2024-01-30T03:16:14;21.67;;;11.40;;
81306;SDS011;70775;50.846;3.224;2024-01-30T03:18:40;20.75;;;11.55;;
81306;SDS011;70775;50.846;3.224;2024-01-30T03:23:50;22.63;;;10.75;;
81306;SDS011;70775;50.846;3.224;2024-01-30T03:26:16;21.17;;;11.52;;
81306;SDS011;70775;50.846;3.224;2024-01-30T03:28:41;21.25;;;11.25;;
81306;SDS011;70775;50.846;3.224;2024-01-30T03:31:07;23.70;;;12.40;;
81306;SDS011;70775;50.846;3.224;2024-01-30T03:33:33;21.17;;;11.40;;
81306;SDS011;70775;50.846;3.224;2024-01-30T03:36:06;22.73;;;11.48;;
81306;SDS011;70775;50.846;3.224;2024-01-30T03:38:31;22.63;;;11.68;;
81306;SDS011;70775;50.846;3.224;2024-01-30T03:41:00;20.42;;;11.13;;
81306;SDS011;70775;50.846;3.224;2024-01-30T03:43:26;22.90;;;11.75;;
81306;SDS011;70775;50.846;3.224;2024-01-30T03:45:52;22.27;;;11.52;;
81306;SDS011;70775;50.846;3.224;2024-01-30T03:48:18;25.65;;;12.45;;
81306;SDS011;70775;50.846;3.224;2024-01-30T03:53:14;22.92;;;12.60;;
81306;SDS011;70775;50.846;3.224;2024-01-30T03:55:40;25.15;;;11.70;;
81306;SDS011;70775;50.846;3.224;2024-01-30T03:58:06;26.60;;;12.75;;
81306;SDS011;70775;50.846;3.224;2024-01-30T04:00:31;25.27;;;13.35;;
81306;SDS011;70775;50.846;3.224;2024-01-30T04:03:11;24.38;;;12.77;;
81306;SDS011;70775;50.846;3.224;2024-01-30T04:05:37;26.05;;;12.60;;
81306;SDS011;70775;50.846;3.224;2024-01-30T04:08:03;26.10;;;13.50;;
81306;SDS011;70775;50.846;3.224;2024-01-30T04:10:28;22.67;;;12.88;;
81306;SDS011;70775;50.846;3.224;2024-01-30T04:12:54;22.60;;;12.63;;
81306;SDS011;70775;50.846;3.224;2024-01-30T04:15:20;24.83;;;11.73;;
81306;SDS011;70775;50.846;3.224;2024-01-30T04:17:46;25.58;;;12.95;;
81306;SDS011;70775;50.846;3.224;2024-01-30T04:20:15;22.60;;;12.45;;
81306;SDS011;70775;50.846;3.224;2024-01-30T04:22:42;23.80;;;11.63;;
81306;SDS011;70775;50.846;3.224;2024-01-30T04:25:12;23.65;;;13.23;;
81306;SDS011;70775;50.846;3.224;2024-01-30T04:27:38;23.02;;;11.73;;
81306;SDS011;70775;50.846;3.224;2024-01-30T04:30:06;21.33;;;11.77;;
81306;SDS011;70775;50.846;3.224;2024-01-30T04:32:32;25.52;;;11.48;;
81306;SDS011;70775;50.846;3.224;2024-01-30T04:35:13;22.70;;;12.20;;
81306;SDS011;70775;50.846;3.224;2024-01-30T04:37:40;23.48;;;12.25;;
81306;SDS011;70775;50.846;3.224;2024-01-30T04:40:06;23.80;;;11.57;;
81306;SDS011;70775;50.846;3.224;2024-01-30T04:45:03;25.80;;;12.20;;
81306;SDS011;70775;50.846;3.224;2024-01-30T04:47:28;26.98;;;12.55;;
81306;SDS011;70775;50.846;3.224;2024-01-30T04:50:06;25.30;;;12.88;;
81306;SDS011;70775;50.846;3.224;2024-01-30T04:52:32;24.77;;;12.90;;
81306;SDS011;70775;50.846;3.224;2024-01-30T04:54:58;25.88;;;12.82;;
81306;SDS011;70775;50.846;3.224;2024-01-30T04:57:24;24.17;;;12.18;;
81306;SDS011;70775;50.846;3.224;2024-01-30T04:59:59;22.08;;;11.57;;
81306;SDS011;70775;50.846;3.224;2024-01-30T05:02:24;23.17;;;12.80;;
81306;SDS011;70775;50.846;3.224;2024-01-30T05:04:50;28.10;;;13.80;;
81306;SDS011;70775;50.846;3.224;2024-01-30T05:07:16;26.00;;;13.70;;
81306;SDS011;70775;50.846;3.224;2024-01-30T05:09:41;30.33;;;13.85;;
81306;SDS011;70775;50.846;3.224;2024-01-30T05:12:07;23.80;;;11.77;;
81306;SDS011;70775;50.846;3.224;2024-01-30T05:14:33;24.85;;;12.32;;
81306;SDS011;70775;50.846;3.224;2024-01-30T05:16:58;25.25;;;14.23;;
81306;SDS011;70775;50.846;3.224;2024-01-30T05:19:24;23.83;;;11.90;;
81306;SDS011;70775;50.846;3.224;2024-01-30T05:21:49;26.98;;;14.18;;
81306;SDS011;70775;50.846;3.224;2024-01-30T05:24:15;23.05;;;12.27;;
81306;SDS011;70775;50.846;3.224;2024-01-30T05:26:41;29.73;;;13.85;;
81306;SDS011;70775;50.846;3.224;2024-01-30T05:29:07;22.65;;;12.23;;
81306;SDS011;70775;50.846;3.224;2024-01-30T05:31:33;28.73;;;13.75;;
81306;SDS011;70775;50.846;3.224;2024-01-30T05:33:59;24.95;;;11.77;;
81306;SDS011;70775;50.846;3.224;2024-01-30T05:36:25;22.63;;;11.23;;
81306;SDS011;70775;50.846;3.224;2024-01-30T05:38:51;23.10;;;13.23;;
81306;SDS011;70775;50.846;3.224;2024-01-30T05:41:16;26.23;;;11.82;;
81306;SDS011;70775;50.846;3.224;2024-01-30T05:43:42;22.77;;;11.85;;
81306;SDS011;70775;50.846;3.224;2024-01-30T05:46:10;22.05;;;12.05;;
81306;SDS011;70775;50.846;3.224;2024-01-30T05:51:07;17.73;;;10.18;;
81306;SDS011;70775;50.846;3.224;2024-01-30T05:56:10;20.55;;;11.18;;
81306;SDS011;70775;50.846;3.224;2024-01-30T05:58:36;20.38;;;10.27;;
81306;SDS011;70775;50.846;3.224;2024-01-30T06:01:03;24.90;;;13.13;;
81306;SDS011;70775;50.846;3.224;2024-01-30T06:03:32;25.55;;;11.68;;
81306;SDS011;70775;50.846;3.224;2024-01-30T06:05:58;23.95;;;12.05;;
81306;SDS011;70775;50.846;3.224;2024-01-30T06:08:23;27.50;;;12.88;;
81306;SDS011;70775;50.846;3.224;2024-01-30T06:10:49;24.95;;;11.70;;
81306;SDS011;70775;50.846;3.224;2024-01-30T06:13:15;25.73;;;12.30;;
81306;SDS011;70775;50.846;3.224;2024-01-30T06:15:40;20.30;;;11.43;;
81306;SDS011;70775;50.846;3.224;2024-01-30T06:18:06;22.80;;;11.73;;
81306;SDS011;70775;50.846;3.224;2024-01-30T06:20:32;24.42;;;10.77;;
81306;SDS011;70775;50.846;3.224;2024-01-30T06:22:57;22.65;;;11.05;;
81306;SDS011;70775;50.846;3.224;2024-01-30T06:25:23;24.55;;;12.68;;
81306;SDS011;70775;50.846;3.224;2024-01-30T06:27:49;22.60;;;11.60;;
81306;SDS011;70775;50.846;3.224;2024-01-30T06:30:14;23.27;;;13.30;;
81306;SDS011;70775;50.846;3.224;2024-01-30T06:32:40;25.85;;;11.93;;
81306;SDS011;70775;50.846;3.224;2024-01-30T06:35:06;22.92;;;10.95;;
81306;SDS011;70775;50.846;3.224;2024-01-30T06:37:32;23.63;;;12.60;;
81306;SDS011;70775;50.846;3.224;2024-01-30T06:39:57;24.92;;;12.15;;
81306;SDS011;70775;50.846;3.224;2024-01-30T06:42:23;22.65;;;12.45;;
81306;SDS011;70775;50.846;3.224;2024-01-30T06:44:49;28.67;;;11.95;;
81306;SDS011;70775;50.846;3.224;2024-01-30T06:47:15;22.70;;;11.48;;
81306;SDS011;70775;50.846;3.224;2024-01-30T06:49:40;21.83;;;12.02;;
81306;SDS011;70775;50.846;3.224;2024-01-30T06:52:07;23.77;;;13.00;;
81306;SDS011;70775;50.846;3.224;2024-01-30T06:57:15;22.90;;;12.48;;
81306;SDS011;70775;50.846;3.224;2024-01-30T06:59:44;20.92;;;12.13;;
81306;SDS011;70775;50.846;3.224;2024-01-30T07:02:10;26.77;;;12.23;;
81306;SDS011;70775;50.846;3.224;2024-01-30T07:04:36;28.58;;;13.13;;
81306;SDS011;70775;50.846;3.224;2024-01-30T07:07:06;23.50;;;12.70;;
81306;SDS011;70775;50.846;3.224;2024-01-30T07:09:36;25.58;;;12.63;;
81306;SDS011;70775;50.846;3.224;2024-01-30T07:12:02;28.33;;;12.57;;
81306;SDS011;70775;50.846;3.224;2024-01-30T07:14:28;25.00;;;12.43;;
81306;SDS011;70775;50.846;3.224;2024-01-30T07:17:01;25.33;;;12.82;;
81306;SDS011;70775;50.846;3.224;2024-01-30T07:19:27;36.30;;;14.38;;
81306;SDS011;70775;50.846;3.224;2024-01-30T07:21:53;26.15;;;13.55;;
81306;SDS011;70775;50.846;3.224;2024-01-30T07:24:18;25.65;;;12.60;;
81306;SDS011;70775;50.846;3.224;2024-01-30T07:26:44;28.00;;;13.30;;
81306;SDS011;70775;50.846;3.224;2024-01-30T07:29:10;23.85;;;11.50;;
81306;SDS011;70775;50.846;3.224;2024-01-30T07:31:35;22.70;;;13.00;;
81306;SDS011;70775;50.846;3.224;2024-01-30T07:34:01;30.27;;;13.18;;
81306;SDS011;70775;50.846;3.224;2024-01-30T07:36:27;23.92;;;13.35;;
81306;SDS011;70775;50.846;3.224;2024-01-30T07:38:53;26.42;;;14.50;;
81306;SDS011;70775;50.846;3.224;2024-01-30T07:41:19;23.15;;;13.02;;
81306;SDS011;70775;50.846;3.224;2024-01-30T07:46:30;22.77;;;10.88;;
81306;SDS011;70775;50.846;3.224;2024-01-30T07:48:55;24.50;;;11.88;;
81306;SDS011;70775;50.846;3.224;2024-01-30T07:51:22;30.52;;;13.38;;
81306;SDS011;70775;50.846;3.224;2024-01-30T07:53:53;24.98;;;13.18;;
81306;SDS011;70775;50.846;3.224;2024-01-30T07:56:20;28.23;;;12.65;;
81306;SDS011;70775;50.846;3.224;2024-01-30T07:58:45;20.77;;;9.18;;
81306;SDS011;70775;50.846;3.224;2024-01-30T08:01:11;21.73;;;8.05;;
81306;SDS011;70775;50.846;3.224;2024-01-30T08:03:37;23.88;;;9.68;;
81306;SDS011;70775;50.846;3.224;2024-01-30T08:06:05;21.10;;;8.93;;
81306;SDS011;70775;50.846;3.224;2024-01-30T08:08:31;21.75;;;9.07;;
81306;SDS011;70775;50.846;3.224;2024-01-30T08:10:57;21.10;;;7.93;;
81306;SDS011;70775;50.846;3.224;2024-01-30T08:13:23;19.52;;;7.85;;
81306;SDS011;70775;50.846;3.224;2024-01-30T08:15:49;18.75;;;7.43;;
81306;SDS011;70775;50.846;3.224;2024-01-30T08:18:14;17.13;;;6.35;;
81306;SDS011;70775;50.846;3.224;2024-01-30T08:20:40;10.48;;;3.60;;
81306;SDS011;70775;50.846;3.224;2024-01-30T08:23:06;11.77;;;3.78;;
81306;SDS011;70775;50.846;3.224;2024-01-30T08:25:31;10.52;;;4.10;;
81306;SDS011;70775;50.846;3.224;2024-01-30T08:27:57;12.32;;;4.40;;
81306;SDS011;70775;50.846;3.224;2024-01-30T08:30:23;11.20;;;4.47;;
81306;SDS011;70775;50.846;3.224;2024-01-30T08:32:48;10.73;;;3.92;;
81306;SDS011;70775;50.846;3.224;2024-01-30T08:35:14;12.55;;;3.50;;
81306;SDS011;70775;50.846;3.224;2024-01-30T08:37:41;21.50;;;5.38;;
81306;SDS011;70775;50.846;3.224;2024-01-30T08:40:07;9.88;;;4.57;;
81306;SDS011;70775;50.846;3.224;2024-01-30T08:42:36;13.80;;;4.47;;
81306;SDS011;70775;50.846;3.224;2024-01-30T08:45:02;9.57;;;3.20;;
81306;SDS011;70775;50.846;3.224;2024-01-30T08:47:29;10.27;;;3.08;;
81306;SDS011;70775;50.846;3.224;2024-01-30T08:49:55;11.07;;;3.85;;
81306;SDS011;70775;50.846;3.224;2024-01-30T08:52:21;15.05;;;2.78;;
81306;SDS011;70775;50.846;3.224;2024-01-30T08:54:47;4.50;;;1.67;;
81306;SDS011;70775;50.846;3.224;2024-01-30T08:57:12;5.82;;;1.95;;
81306;SDS011;70775;50.846;3.224;2024-01-30T08:59:38;10.70;;;2.20;;
81306;SDS011;70775;50.846;3.224;2024-01-30T09:02:04;6.45;;;2.03;;
81306;SDS011;70775;50.846;3.224;2024-01-30T09:04:30;4.97;;;2.40;;
81306;SDS011;70775;50.846;3.224;2024-01-30T09:06:55;9.77;;;3.30;;
81306;SDS011;70775;50.846;3.224;2024-01-30T09:09:21;9.23;;;2.85;;
81306;SDS011;70775;50.846;3.224;2024-01-30T09:11:47;13.45;;;4.75;;
81306;SDS011;70775;50.846;3.224;2024-01-30T09:14:13;10.70;;;2.78;;
81306;SDS011;70775;50.846;3.224;2024-01-30T09:16:38;10.45;;;2.63;;
81306;SDS011;70775;50.846;3.224;2024-01-30T09:19:04;4.15;;;2.20;;
81306;SDS011;70775;50.846;3.224;2024-01-30T09:21:29;11.52;;;2.35;;
81306;SDS011;70775;50.846;3.224;2024-01-30T09:23:55;14.85;;;3.35;;
81306;SDS011;70775;50.846;3.224;2024-01-30T09:26:28;7.72;;;2.45;;
81306;SDS011;70775;50.846;3.224;2024-01-30T09:28:54;8.07;;;2.70;;
81306;SDS011;70775;50.846;3.224;2024-01-30T09:31:20;7.18;;;1.70;;
81306;SDS011;70775;50.846;3.224;2024-01-30T09:33:45;5.65;;;1.58;;
81306;SDS011;70775;50.846;3.224;2024-01-30T09:36:13;5.63;;;2.67;;
81306;SDS011;70775;50.846;3.224;2024-01-30T09:38:40;6.45;;;2.00;;
81306;SDS011;70775;50.846;3.224;2024-01-30T09:41:07;6.28;;;3.20;;
81306;SDS011;70775;50.846;3.224;2024-01-30T09:43:38;4.18;;;1.92;;
81306;SDS011;70775;50.846;3.224;2024-01-30T09:46:05;5.28;;;2.22;;
81306;SDS011;70775;50.846;3.224;2024-01-30T09:48:32;6.82;;;2.92;;
81306;SDS011;70775;50.846;3.224;2024-01-30T09:50:59;1.63;;;1.10;;
81306;SDS011;70775;50.846;3.224;2024-01-30T09:53:25;4.53;;;2.05;;
81306;SDS011;70775;50.846;3.224;2024-01-30T09:55:51;2.80;;;1.30;;
81306;SDS011;70775;50.846;3.224;2024-01-30T09:58:17;6.97;;;2.08;;
81306;SDS011;70775;50.846;3.224;2024-01-30T10:00:42;3.05;;;1.40;;
81306;SDS011;70775;50.846;3.224;2024-01-30T10:03:08;10.25;;;1.67;;
81306;SDS011;70775;50.846;3.224;2024-01-30T10:05:35;3.92;;;1.65;;
81306;SDS011;70775;50.846;3.224;2024-01-30T10:08:05;8.25;;;2.03;;
81306;SDS011;70775;50.846;3.224;2024-01-30T10:10:31;3.28;;;1.55;;
81306;SDS011;70775;50.846;3.224;2024-01-30T10:12:57;4.55;;;1.90;;
81306;SDS011;70775;50.846;3.224;2024-01-30T10:15:23;8.27;;;1.70;;
81306;SDS011;70775;50.846;3.224;2024-01-30T10:17:50;7.45;;;2.63;;
81306;SDS011;70775;50.846;3.224;2024-01-30T10:20:16;10.60;;;2.00;;
81306;SDS011;70775;50.846;3.224;2024-01-30T10:22:44;2.50;;;1.30;;
81306;SDS011;70775;50.846;3.224;2024-01-30T10:25:10;5.20;;;2.03;;
81306;SDS011;70775;50.846;3.224;2024-01-30T10:27:36;8.80;;;2.10;;
81306;SDS011;70775;50.846;3.224;2024-01-30T10:30:04;5.45;;;1.45;;
81306;SDS011;70775;50.846;3.224;2024-01-30T10:32:30;3.55;;;1.65;;
81306;SDS011;70775;50.846;3.224;2024-01-30T10:34:56;6.53;;;1.33;;
81306;SDS011;70775;50.846;3.224;2024-01-30T10:37:21;5.82;;;1.70;;
81306;SDS011;70775;50.846;3.224;2024-01-30T10:39:50;3.95;;;1.13;;
81306;SDS011;70775;50.846;3.224;2024-01-30T10:42:20;6.50;;;1.95;;
81306;SDS011;70775;50.846;3.224;2024-01-30T10:47:28;7.18;;;2.03;;
81306;SDS011;70775;50.846;3.224;2024-01-30T10:49:55;4.57;;;2.40;;
81306;SDS011;70775;50.846;3.224;2024-01-30T10:52:22;6.75;;;3.15;;
81306;SDS011;70775;50.846;3.224;2024-01-30T10:54:51;6.88;;;1.90;;
81306;SDS011;70775;50.846;3.224;2024-01-30T10:57:17;5.25;;;1.55;;
81306;SDS011;70775;50.846;3.224;2024-01-30T10:59:43;5.03;;;1.70;;
81306;SDS011;70775;50.846;3.224;2024-01-30T11:02:10;5.75;;;1.75;;
81306;SDS011;70775;50.846;3.224;2024-01-30T11:04:45;7.65;;;1.77;;
81306;SDS011;70775;50.846;3.224;2024-01-30T11:07:18;4.40;;;1.73;;
81306;SDS011;70775;50.846;3.224;2024-01-30T11:09:49;5.00;;;1.60;;
81306;SDS011;70775;50.846;3.224;2024-01-30T11:12:16;3.00;;;0.80;;
81306;SDS011;70775;50.846;3.224;2024-01-30T11:14:46;5.40;;;1.40;;
81306;SDS011;70775;50.846;3.224;2024-01-30T11:17:11;5.50;;;1.50;;
81306;SDS011;70775;50.846;3.224;2024-01-30T11:19:37;3.58;;;1.15;;
81306;SDS011;70775;50.846;3.224;2024-01-30T11:22:03;2.28;;;1.00;;
81306;SDS011;70775;50.846;3.224;2024-01-30T11:24:36;2.33;;;1.13;;
81306;SDS011;70775;50.846;3.224;2024-01-30T11:27:08;3.67;;;1.00;;
81306;SDS011;70775;50.846;3.224;2024-01-30T11:29:35;5.30;;;1.60;;
81306;SDS011;70775;50.846;3.224;2024-01-30T11:32:01;7.07;;;1.50;;
81306;SDS011;70775;50.846;3.224;2024-01-30T11:34:27;6.93;;;1.58;;
81306;SDS011;70775;50.846;3.224;2024-01-30T11:36:59;8.27;;;1.38;;
81306;SDS011;70775;50.846;3.224;2024-01-30T11:39:34;4.18;;;1.85;;
81306;SDS011;70775;50.846;3.224;2024-01-30T11:42:01;7.15;;;1.75;;
81306;SDS011;70775;50.846;3.224;2024-01-30T11:44:30;5.30;;;1.52;;
81306;SDS011;70775;50.846;3.224;2024-01-30T11:46:56;6.57;;;1.52;;
81306;SDS011;70775;50.846;3.224;2024-01-30T11:49:22;2.78;;;0.98;;
81306;SDS011;70775;50.846;3.224;2024-01-30T11:51:48;6.10;;;1.10;;
81306;SDS011;70775;50.846;3.224;2024-01-30T11:54:15;4.75;;;1.40;;
81306;SDS011;70775;50.846;3.224;2024-01-30T11:56:41;4.45;;;1.70;;
81306;SDS011;70775;50.846;3.224;2024-01-30T11:59:09;7.93;;;1.10;;
81306;SDS011;70775;50.846;3.224;2024-01-30T12:01:35;2.17;;;1.08;;
81306;SDS011;70775;50.846;3.224;2024-01-30T12:04:01;7.93;;;1.83;;
81306;SDS011;70775;50.846;3.224;2024-01-30T12:06:27;4.53;;;1.38;;
81306;SDS011;70775;50.846;3.224;2024-01-30T12:08:56;4.32;;;1.70;;
81306;SDS011;70775;50.846;3.224;2024-01-30T12:11:26;6.00;;;1.58;;
81306;SDS011;70775;50.846;3.224;2024-01-30T12:13:53;5.90;;;1.95;;
81306;SDS011;70775;50.846;3.224;2024-01-30T12:16:20;2.78;;;1.00;;
81306;SDS011;70775;50.846;3.224;2024-01-30T12:18:46;3.70;;;1.30;;
81306;SDS011;70775;50.846;3.224;2024-01-30T12:21:11;5.68;;;1.30;;
81306;SDS011;70775;50.846;3.224;2024-01-30T12:23:37;4.63;;;0.98;;
81306;SDS011;70775;50.846;3.224;2024-01-30T12:26:03;3.10;;;1.23;;
81306;SDS011;70775;50.846;3.224;2024-01-30T12:28:32;9.05;;;1.60;;
81306;SDS011;70775;50.846;3.224;2024-01-30T12:31:03;3.15;;;1.20;;
81306;SDS011;70775;50.846;3.224;2024-01-30T12:33:30;6.68;;;1.45;;
81306;SDS011;70775;50.846;3.224;2024-01-30T12:35:56;4.03;;;1.00;;
81306;SDS011;70775;50.846;3.224;2024-01-30T12:38:24;2.55;;;1.15;;
81306;SDS011;70775;50.846;3.224;2024-01-30T12:40:52;7.00;;;1.60;;
81306;SDS011;70775;50.846;3.224;2024-01-30T12:43:20;6.68;;;1.70;;
81306;SDS011;70775;50.846;3.224;2024-01-30T12:45:47;4.07;;;1.10;;
81306;SDS011;70775;50.846;3.224;2024-01-30T12:48:13;6.35;;;2.00;;
81306;SDS011;70775;50.846;3.224;2024-01-30T12:50:39;4.93;;;1.70;;
81306;SDS011;70775;50.846;3.224;2024-01-30T12:53:04;2.40;;;1.13;;
81306;SDS011;70775;50.846;3.224;2024-01-30T12:55:31;8.25;;;2.75;;
81306;SDS011;70775;50.846;3.224;2024-01-30T12:57:56;6.82;;;1.63;;
81306;SDS011;70775;50.846;3.224;2024-01-30T13:00:22;4.35;;;1.63;;
81306;SDS011;70775;50.846;3.224;2024-01-30T13:02:50;6.32;;;2.15;;
81306;SDS011;70775;50.846;3.224;2024-01-30T13:05:17;5.55;;;1.90;;
81306;SDS011;70775;50.846;3.224;2024-01-30T13:07:43;8.02;;;2.03;;
81306;SDS011;70775;50.846;3.224;2024-01-30T13:10:09;8.90;;;2.17;;
81306;SDS011;70775;50.846;3.224;2024-01-30T13:12:34;4.20;;;1.90;;
81306;SDS011;70775;50.846;3.224;2024-01-30T13:15:00;6.32;;;2.08;;
81306;SDS011;70775;50.846;3.224;2024-01-30T13:17:27;3.85;;;1.65;;
81306;SDS011;70775;50.846;3.224;2024-01-30T13:19:54;11.30;;;2.50;;
81306;SDS011;70775;50.846;3.224;2024-01-30T13:22:20;3.33;;;1.92;;
81306;SDS011;70775;50.846;3.224;2024-01-30T13:24:53;7.95;;;1.75;;
81306;SDS011;70775;50.846;3.224;2024-01-30T13:27:19;7.82;;;1.63;;
81306;SDS011;70775;50.846;3.224;2024-01-30T13:29:47;7.25;;;1.75;;
81306;SDS011;70775;50.846;3.224;2024-01-30T13:32:14;6.82;;;1.88;;
81306;SDS011;70775;50.846;3.224;2024-01-30T13:34:40;4.13;;;1.70;;
81306;SDS011;70775;50.846;3.224;2024-01-30T13:37:06;9.05;;;2.15;;
81306;SDS011;70775;50.846;3.224;2024-01-30T13:39:32;6.80;;;1.65;;
81306;SDS011;70775;50.846;3.224;2024-01-30T13:42:00;3.95;;;1.55;;
81306;SDS011;70775;50.846;3.224;2024-01-30T13:44:25;4.60;;;1.40;;
81306;SDS011;70775;50.846;3.224;2024-01-30T13:46:51;5.82;;;1.70;;
81306;SDS011;70775;50.846;3.224;2024-01-30T13:49:17;3.67;;;1.60;;
81306;SDS011;70775;50.846;3.224;2024-01-30T13:51:43;4.65;;;2.10;;
81306;SDS011;70775;50.846;3.224;2024-01-30T13:54:08;2.38;;;1.48;;
81306;SDS011;70775;50.846;3.224;2024-01-30T13:56:34;5.00;;;1.80;;
81306;SDS011;70775;50.846;3.224;2024-01-30T13:59:00;7.43;;;2.33;;
81306;SDS011;70775;50.846;3.224;2024-01-30T14:01:26;5.43;;;1.98;;
81306;SDS011;70775;50.846;3.224;2024-01-30T14:03:52;4.38;;;1.90;;
81306;SDS011;70775;50.846;3.224;2024-01-30T14:06:18;5.20;;;2.20;;
81306;SDS011;70775;50.846;3.224;2024-01-30T14:08:44;4.30;;;2.05;;
81306;SDS011;70775;50.846;3.224;2024-01-30T14:11:09;7.13;;;2.38;;
81306;SDS011;70775;50.846;3.224;2024-01-30T14:13:35;8.40;;;2.55;;
81306;SDS011;70775;50.846;3.224;2024-01-30T14:16:01;9.77;;;2.33;;
81306;SDS011;70775;50.846;3.224;2024-01-30T14:18:26;8.85;;;2.67;;
81306;SDS011;70775;50.846;3.224;2024-01-30T14:20:52;8.43;;;2.60;;
81306;SDS011;70775;50.846;3.224;2024-01-30T14:23:19;8.77;;;3.15;;
81306;SDS011;70775;50.846;3.224;2024-01-30T14:25:45;9.98;;;2.75;;
81306;SDS011;70775;50.846;3.224;2024-01-30T14:28:10;6.95;;;2.50;;
81306;SDS011;70775;50.846;3.224;2024-01-30T14:30:36;13.35;;;3.53;;
81306;SDS011;70775;50.846;3.224;2024-01-30T14:33:02;16.95;;;3.42;;
81306;SDS011;70775;50.846;3.224;2024-01-30T14:35:27;11.20;;;2.75;;
81306;SDS011;70775;50.846;3.224;2024-01-30T14:37:53;7.25;;;3.22;;
81306;SDS011;70775;50.846;3.224;2024-01-30T14:40:19;9.18;;;3.28;;
81306;SDS011;70775;50.846;3.224;2024-01-30T14:42:45;11.25;;;3.47;;
81306;SDS011;70775;50.846;3.224;2024-01-30T14:45:10;8.80;;;3.58;;
81306;SDS011;70775;50.846;3.224;2024-01-30T14:47:36;9.32;;;2.90;;
81306;SDS011;70775;50.846;3.224;2024-01-30T14:50:02;7.82;;;3.42;;
81306;SDS011;70775;50.846;3.224;2024-01-30T14:52:29;10.18;;;3.92;;
81306;SDS011;70775;50.846;3.224;2024-01-30T14:54:55;13.80;;;3.75;;
81306;SDS011;70775;50.846;3.224;2024-01-30T14:57:20;9.75;;;3.20;;
81306;SDS011;70775;50.846;3.224;2024-01-30T14:59:46;9.05;;;3.92;;
81306;SDS011;70775;50.846;3.224;2024-01-30T15:02:13;7.90;;;3.13;;
81306;SDS011;70775;50.846;3.224;2024-01-30T15:04:39;16.08;;;3.20;;
81306;SDS011;70775;50.846;3.224;2024-01-30T15:07:05;11.07;;;3.67;;
81306;SDS011;70775;50.846;3.224;2024-01-30T15:09:31;15.18;;;3.80;;
81306;SDS011;70775;50.846;3.224;2024-01-30T15:11:56;11.93;;;3.58;;
81306;SDS011;70775;50.846;3.224;2024-01-30T15:14:22;8.68;;;3.70;;